Carrigan, Illinois
Current Conditions -  °F | °C
As of 11:35 PM on Friday 31 Oct 2014 (Local Time) from KSLO Reporting Station
Clear Clear  
Wind Chill: 29°   Ceiling: Unl
Heat Index: 37°   Visibility: 10mi
Dew Point: 24°   Wind: 13mph
Humidity: 59%   Direction: 340°NNW
Pressure: 30.33"   Gusts: 18mph
Location:  38.7613°N, 89.0868°W
Report Text: KSLO 010435Z AUTO 34011G16KT 10SM CLR 03/M05 A3033 RMK AO2 T00281046
Loading
Personal Weather Stations






























Interactive Weather Map
Tropical Storm Tracking
New forecast layout! Learn more

10-Day Weather Forecast

Advertisements
Track Severe Weather on mobile